LIPX Airport Information

Runway Information
Runway 04 Length 10064 ft width 148 ft
Elevation 220 ft Threshold 189 ft Heading 46
Runway 22 Length 10064 ft Width 148 ft
Elevation 238 ft Threshold 1345 ft Heading 226
Airport Frequencies
Type APP Name GARDA APP Frequency 124.45 MHZ
Type APP Name GARDA APP Frequency 36.23 MHZ
Type GND Name GND Frequency 121.75 MHZ
Type INFO Name PADOVA INF Frequency 123.25 MHZ
Type TWR Name TWR Frequency 118.65 MHZ
Airport Navaids
Type VORTAC Name Villafranca Frequency 115800 KHZ
Type NDB Name Villafranca Frequency 355 KHZ
Airport Weather Information & NOTAM
ADDS - METARS form results

(0501 UTC 02 December 2022)
Data provider http://aviationweather.gov/metar/data/
 
METAR text: LIPX 020450Z AUTO 08004KT 9999 FEW041/// BKN056/// 07/03 Q1018
Conditions at: LIPX (VILLAFRANCA(CV/M, IT) observed 0450 UTC 02 December 2022
Temperature: 7.0°C (45°F)
Dewpoint: 3.0°C (37°F) [RH = 76%]
Pressure (altimeter): 30.06 inches Hg (1018.0 mb)
Winds: from the E (80 degrees) at 5 MPH (4 knots; 2.1 m/s)
Visibility: 6 or more miles (10+ km)
Ceiling: 5600 feet AGL
Clouds: few clouds at 4100 feet AGL
broken clouds at 5600 feet AGL
Weather: no significant weather observed at this time

METAR text: LIPX 020420Z AUTO 08006KT 9999 BKN052/// 08/03 Q1018
Conditions at: LIPX (VILLAFRANCA(CV/M, IT) observed 0420 UTC 02 December 2022
Temperature: 8.0°C (46°F)
Dewpoint: 3.0°C (37°F) [RH = 71%]
Pressure (altimeter): 30.06 inches Hg (1018.0 mb)
Winds: from the E (80 degrees) at 7 MPH (6 knots; 3.1 m/s)
Visibility: 6 or more miles (10+ km)
Ceiling: 5200 feet AGL
Clouds: broken clouds at 5200 feet AGL
Weather: no significant weather observed at this time

Forecast for: LIPX (VILLAFRANCA(CV/M, IT)
Text: TAF LIPX 012300Z 0200/0224 09007KT 9999 BKN060
Forecast period: 0000 to 1000 UTC 02 December 2022
Forecast type: FROM: standard forecast or significant change
Winds: from the E (90 degrees) at 8 MPH (7 knots; 3.6 m/s)
Visibility: 6 or more miles (10+ km)
Ceiling: 6000 feet AGL
Clouds: broken clouds at 6000 feet AGL
Weather: no significant weather forecast for this period
Text: TEMPO 0200/0208 2000 BR
Forecast period: 0000 to 0800 UTC 02 December 2022
Forecast type: TEMPORARY: The following changes expected for less than half the time period
Visibility: 1.24 miles (2.00 km)
Ceiling: unknown
Clouds: missing
Weather: BR  (mist)
Text: BECMG 0210/0212 4000 -RA BR BKN014
Forecast period: 1000 UTC 02 December 2022 to 0000 UTC 03 December 2022
Forecast type: BECOMING: Conditions expected to become as follows by 1200 UTC 02 December 2022
Winds: from the E (90 degrees) at 8 MPH (7 knots; 3.6 m/s)
Visibility: 2.49 miles (4.01 km)
Ceiling: 1400 feet AGL
Clouds: broken clouds at 1400 feet AGL
Weather: -RA BR  (light rain, mist)